Time;durP1;ratioP1;P1;durP2;ratioP2;P2;SDS_P1;SDS_P2;PMS_P1;PMS_P2;Temp;Humidity;BMP_temperature;BMP_pressure;BME280_temperature;BME280_humidity;BME280_pressure;Samples;Min_cycle;Max_cycle;Signal;HPM_P1;HPM_P2
2021/09/28 00:01:32;;;;;;;38.10;23.23;;;15.90;99.90;;;;;;4989712;28;20395;-78
2021/09/28 00:03:57;;;;;;;29.45;22.17;;;15.90;99.90;;;;;;4971644;28;20393;-82
2021/09/28 00:06:23;;;;;;;28.37;21.23;;;15.90;99.90;;;;;;4989160;28;20409;-80
2021/09/28 00:08:48;;;;;;;26.85;22.60;;;15.90;99.90;;;;;;4989113;28;20528;-80
2021/09/28 00:11:14;;;;;;;28.60;23.00;;;16.00;99.90;;;;;;4989163;28;20377;-83
2021/09/28 00:13:40;;;;;;;28.15;21.65;;;16.00;99.90;;;;;;4989225;28;20381;-82
2021/09/28 00:16:05;;;;;;;25.93;23.13;;;16.00;99.90;;;;;;4989239;28;20381;-83
2021/09/28 00:18:31;;;;;;;24.42;21.63;;;16.00;99.90;;;;;;4989436;28;20972;-81
2021/09/28 00:20:57;;;;;;;24.10;21.67;;;16.00;99.90;;;;;;4989340;28;21170;-80
2021/09/28 00:23:23;;;;;;;26.60;23.80;;;16.00;99.90;;;;;;4989032;28;20392;-82
2021/09/28 00:25:49;;;;;;;26.50;23.70;;;16.10;99.90;;;;;;4989192;28;20396;-81
2021/09/28 00:28:18;;;;;;;36.35;23.90;;;16.10;99.90;;;;;;4989356;28;20454;-81
2021/09/28 00:30:43;;;;;;;27.45;23.40;;;16.10;99.90;;;;;;4989185;28;20397;-80
2021/09/28 00:33:10;;;;;;;32.47;22.17;;;16.00;99.90;;;;;;4989356;28;20436;-82
2021/09/28 00:35:37;;;;;;;28.65;23.60;;;16.00;99.90;;;;;;4989495;28;20384;-81
2021/09/28 00:38:03;;;;;;;28.25;22.20;;;16.10;99.90;;;;;;4993348;28;20376;-80
2021/09/28 00:40:30;;;;;;;24.90;22.17;;;16.10;99.90;;;;;;4975127;28;20800;-81
2021/09/28 00:42:56;;;;;;;26.77;21.58;;;16.10;99.90;;;;;;4993103;28;20476;-81
2021/09/28 00:45:22;;;;;;;26.77;21.92;;;16.10;99.90;;;;;;4991469;28;20416;-81
2021/09/28 00:47:47;;;;;;;24.67;21.57;;;16.10;99.90;;;;;;4992577;28;20380;-80
2021/09/28 00:50:13;;;;;;;24.23;21.63;;;16.10;99.90;;;;;;4992794;28;20426;-78
2021/09/28 00:52:39;;;;;;;27.13;22.13;;;16.10;99.90;;;;;;4992894;28;20412;-81
2021/09/28 00:55:05;;;;;;;30.65;22.23;;;16.00;99.90;;;;;;4974901;28;20428;-82
2021/09/28 00:57:32;;;;;;;26.08;20.77;;;16.00;99.90;;;;;;4992236;28;20400;-79
2021/09/28 00:59:58;;;;;;;27.63;21.07;;;16.00;99.90;;;;;;4974743;28;20396;-82
2021/09/28 01:02:24;;;;;;;27.55;22.20;;;15.90;99.90;;;;;;4992665;28;20399;-80
2021/09/28 01:04:50;;;;;;;33.67;22.15;;;15.90;99.90;;;;;;4992216;28;20397;-80
2021/09/28 01:07:16;;;;;;;24.97;20.77;;;15.90;99.90;;;;;;4992186;28;20380;-78
2021/09/28 01:09:42;;;;;;;27.17;20.10;;;15.90;99.90;;;;;;4992314;28;20385;-80
2021/09/28 01:12:09;;;;;;;23.33;20.02;;;15.90;99.90;;;;;;4992490;28;20396;-79
2021/09/28 01:14:36;;;;;;;37.17;22.23;;;15.80;99.90;;;;;;4990941;28;20416;-78
2021/09/28 01:17:03;;;;;;;24.40;20.05;;;15.90;99.90;;;;;;4992396;28;20377;-82
2021/09/28 01:19:28;;;;;;;25.10;21.50;;;15.90;99.90;;;;;;4974479;28;20743;-79
2021/09/28 01:21:54;;;;;;;30.63;21.63;;;15.80;99.90;;;;;;4992008;28;20389;-79
2021/09/28 01:24:20;;;;;;;34.00;23.38;;;15.80;99.90;;;;;;4992088;28;20389;-77
2021/09/28 01:26:46;;;;;;;26.63;23.27;;;15.80;99.90;;;;;;4991948;28;20761;-80
2021/09/28 01:29:12;;;;;;;26.17;22.13;;;15.80;99.90;;;;;;4992011;28;20523;-78
2021/09/28 01:31:38;;;;;;;28.23;24.10;;;15.80;99.90;;;;;;4991902;28;20467;-80
2021/09/28 01:34:05;;;;;;;34.95;25.02;;;15.70;99.90;;;;;;4991974;28;20388;-80
2021/09/28 01:36:31;;;;;;;36.97;24.17;;;15.80;99.90;;;;;;4991885;28;20400;-80
2021/09/28 01:38:57;;;;;;;30.03;22.17;;;15.80;99.90;;;;;;4991647;28;20389;-79
2021/09/28 01:41:22;;;;;;;28.85;24.58;;;15.80;99.90;;;;;;4991873;28;20384;-79
2021/09/28 01:43:48;;;;;;;36.93;24.33;;;15.80;99.90;;;;;;4991553;28;20373;-80
2021/09/28 01:46:13;;;;;;;38.05;25.35;;;15.90;99.90;;;;;;4991310;28;20405;-81
2021/09/28 01:48:50;;;;;;;38.63;25.57;;;15.90;99.90;;;;;;4990363;28;20460;-81
2021/09/28 01:51:16;;;;;;;47.47;30.77;;;15.90;99.90;;;;;;4991702;28;20472;-81
2021/09/28 01:53:42;;;;;;;38.17;30.92;;;16.00;99.90;;;;;;4991647;28;20852;-81
2021/09/28 01:56:07;;;;;;;34.83;29.40;;;16.00;99.90;;;;;;4991574;28;21189;-80
2021/09/28 01:58:35;;;;;;;34.80;29.40;;;16.10;99.90;;;;;;4991386;28;20377;-82
2021/09/28 02:01:01;;;;;;;36.25;29.48;;;16.20;99.90;;;;;;4991415;28;20389;-80
2021/09/28 02:03:26;;;;;;;34.78;27.02;;;16.20;99.90;;;;;;4991132;28;20855;-79
2021/09/28 02:05:52;;;;;;;37.25;29.38;;;16.30;99.90;;;;;;4991220;28;20461;-79
2021/09/28 02:08:17;;;;;;;31.37;26.47;;;16.30;99.90;;;;;;4991016;28;20775;-80
2021/09/28 02:10:43;;;;;;;35.08;27.90;;;16.40;99.90;;;;;;4991275;28;20389;-80
2021/09/28 02:13:08;;;;;;;31.73;27.10;;;16.40;99.90;;;;;;4991053;28;20385;-81
2021/09/28 02:15:34;;;;;;;35.47;28.73;;;16.50;99.90;;;;;;4973715;28;20444;-80
2021/09/28 02:18:00;;;;;;;58.23;29.90;;;16.50;99.90;;;;;;4990892;28;20436;-79
2021/09/28 02:20:26;;;;;;;37.10;26.73;;;16.50;99.90;;;;;;4991194;28;20381;-83
2021/09/28 02:22:51;;;;;;;35.07;26.57;;;16.50;99.90;;;;;;4991155;28;20399;-80
2021/09/28 02:25:19;;;;;;;35.17;29.52;;;16.60;99.90;;;;;;4990817;28;20405;-83
2021/09/28 02:27:46;;;;;;;46.70;30.27;;;16.60;99.90;;;;;;4990482;28;20417;-82
2021/09/28 02:30:12;;;;;;;35.92;29.02;;;16.60;99.90;;;;;;4991154;28;20377;-81
2021/09/28 02:32:38;;;;;;;35.22;27.77;;;16.60;99.90;;;;;;4973338;28;20388;-83
2021/09/28 02:35:04;;;;;;;34.72;28.23;;;16.60;99.90;;;;;;4990562;28;20385;-81
2021/09/28 02:37:30;;;;;;;28.97;25.87;;;16.60;99.90;;;;;;4990521;28;20388;-80
2021/09/28 02:39:56;;;;;;;32.13;25.95;;;16.50;99.90;;;;;;4990388;28;20392;-81
2021/09/28 02:42:22;;;;;;;31.10;25.98;;;16.50;99.90;;;;;;4990690;28;20419;-80
2021/09/28 02:44:48;;;;;;;31.27;25.77;;;16.50;99.90;;;;;;4990742;28;20472;-79
2021/09/28 02:47:14;;;;;;;26.00;22.77;;;16.50;99.90;;;;;;4973047;28;20475;-81
2021/09/28 02:49:40;;;;;;;26.65;22.48;;;16.50;99.90;;;;;;4990186;28;20376;-80
2021/09/28 02:52:06;;;;;;;29.20;21.73;;;16.50;99.90;;;;;;4990835;28;20871;-85
2021/09/28 02:54:32;;;;;;;30.13;22.30;;;16.50;99.90;;;;;;4990430;28;20437;-81
2021/09/28 02:56:57;;;;;;;31.07;21.10;;;16.40;99.90;;;;;;4990273;28;20389;-83
2021/09/28 02:59:23;;;;;;;22.10;19.55;;;16.40;99.90;;;;;;4972591;28;20376;-83
2021/09/28 03:01:48;;;;;;;22.33;19.60;;;16.40;99.90;;;;;;4990761;28;20427;-81
2021/09/28 03:04:14;;;;;;;20.37;18.17;;;16.50;99.90;;;;;;4989963;28;20863;-82
2021/09/28 03:06:40;;;;;;;21.47;18.73;;;16.60;99.90;;;;;;4972945;28;20408;-79
2021/09/28 03:09:06;;;;;;;22.50;18.20;;;16.60;99.90;;;;;;4988748;28;20421;-82
2021/09/28 03:11:31;;;;;;;22.03;16.63;;;16.60;99.90;;;;;;4972651;28;20439;-81
2021/09/28 03:13:57;;;;;;;19.38;16.17;;;16.70;99.90;;;;;;4990155;28;20713;-83
2021/09/28 03:16:23;;;;;;;14.83;13.33;;;16.70;99.90;;;;;;4990475;28;20428;-81
2021/09/28 03:18:49;;;;;;;11.90;10.27;;;16.60;99.90;;;;;;4990212;28;20396;-80
2021/09/28 03:21:15;;;;;;;12.82;9.82;;;16.70;99.90;;;;;;4990190;28;20381;-81
2021/09/28 03:23:41;;;;;;;11.40;9.30;;;16.60;99.90;;;;;;4990129;28;20377;-82
2021/09/28 03:26:06;;;;;;;11.35;8.27;;;16.60;99.90;;;;;;4989844;28;20401;-85
2021/09/28 03:28:32;;;;;;;10.10;7.20;;;16.60;99.90;;;;;;4990357;28;21343;-83
2021/09/28 03:30:59;;;;;;;11.07;6.37;;;16.50;99.90;;;;;;4989923;28;20735;-84
2021/09/28 03:33:26;;;;;;;8.85;5.18;;;16.50;99.90;;;;;;4989738;28;20428;-82
2021/09/28 03:35:52;;;;;;;10.32;5.57;;;16.50;99.90;;;;;;4990236;28;20476;-78
2021/09/28 03:38:17;;;;;;;8.00;4.90;;;16.50;99.90;;;;;;4972148;28;20532;-79
2021/09/28 03:40:43;;;;;;;8.95;5.22;;;16.50;99.90;;;;;;4989677;28;20511;-80
2021/09/28 03:43:09;;;;;;;7.80;5.00;;;16.40;99.90;;;;;;4972342;28;20373;-81
2021/09/28 03:45:35;;;;;;;7.27;5.10;;;16.40;99.90;;;;;;4989382;28;20431;-81
2021/09/28 03:48:05;;;;;;;10.85;5.53;;;16.20;99.90;;;;;;4989543;28;20420;-79
2021/09/28 03:50:31;;;;;;;9.70;5.55;;;16.20;99.90;;;;;;4989625;28;20419;-81
2021/09/28 03:52:58;;;;;;;11.73;5.75;;;15.90;99.90;;;;;;4989683;28;20413;-79
2021/09/28 03:55:24;;;;;;;10.93;5.38;;;15.80;99.90;;;;;;4972538;28;20754;-79
2021/09/28 03:57:50;;;;;;;6.33;4.90;;;15.80;99.90;;;;;;4989253;28;20369;-79
2021/09/28 04:00:18;;;;;;;10.05;4.72;;;15.80;99.90;;;;;;4971903;28;20397;-84
2021/09/28 04:02:43;;;;;;;8.47;4.93;;;15.80;99.90;;;;;;4989152;28;20396;-82
2021/09/28 04:05:11;;;;;;;6.07;4.50;;;15.70;99.90;;;;;;4989586;28;20459;-81
2021/09/28 04:07:38;;;;;;;6.93;4.43;;;15.70;99.90;;;;;;4989203;28;20890;-80
2021/09/28 04:10:05;;;;;;;6.03;4.07;;;15.70;99.90;;;;;;4987889;28;20871;-80
2021/09/28 04:12:31;;;;;;;9.27;4.55;;;15.70;99.90;;;;;;4989217;28;20743;-81
2021/09/28 04:14:58;;;;;;;6.20;3.75;;;15.50;99.90;;;;;;4989017;28;20477;-82
2021/09/28 04:17:24;;;;;;;6.65;4.00;;;15.40;99.90;;;;;;4971352;28;20903;-78
2021/09/28 04:19:50;;;;;;;6.63;3.63;;;15.30;99.90;;;;;;4989061;28;20372;-82
2021/09/28 04:22:16;;;;;;;6.77;3.60;;;15.40;99.90;;;;;;4989068;28;20421;-79
2021/09/28 04:24:41;;;;;;;7.07;3.38;;;15.40;99.90;;;;;;4989206;28;20835;-79
2021/09/28 04:27:07;;;;;;;9.33;4.07;;;15.30;99.90;;;;;;4989047;28;20401;-82
2021/09/28 04:29:33;;;;;;;14.90;4.30;;;15.20;99.90;;;;;;4988974;28;20489;-82
2021/09/28 04:31:58;;;;;;;15.52;4.43;;;15.30;99.90;;;;;;4989066;28;20460;-81
2021/09/28 04:34:24;;;;;;;4.77;3.50;;;15.30;99.90;;;;;;4989169;28;20451;-80
2021/09/28 04:36:50;;;;;;;10.52;3.67;;;15.30;99.90;;;;;;4989423;28;20377;-83
2021/09/28 04:39:16;;;;;;;8.02;3.40;;;15.30;99.90;;;;;;4971558;28;20388;-81
2021/09/28 04:41:42;;;;;;;5.33;3.10;;;15.40;99.90;;;;;;4988975;28;20377;-81
2021/09/28 04:44:08;;;;;;;6.63;3.30;;;15.40;99.90;;;;;;4971448;28;20388;-80
2021/09/28 04:46:33;;;;;;;7.67;3.40;;;15.50;99.90;;;;;;4988185;28;20400;-80
2021/09/28 04:48:59;;;;;;;5.15;3.30;;;15.50;99.90;;;;;;4988165;28;20380;-79
2021/09/28 04:51:25;;;;;;;7.37;3.77;;;15.50;99.90;;;;;;4988817;28;20403;-80
2021/09/28 04:53:50;;;;;;;33.78;6.30;;;15.50;99.90;;;;;;4988060;28;20404;-79
2021/09/28 04:56:16;;;;;;;6.90;3.80;;;15.50;99.90;;;;;;4986678;28;20412;-81
2021/09/28 04:58:41;;;;;;;7.20;3.40;;;15.50;99.90;;;;;;4987787;28;20392;-81
2021/09/28 05:01:07;;;;;;;6.77;3.17;;;15.50;99.90;;;;;;4987450;28;20408;-81
2021/09/28 05:03:33;;;;;;;5.93;3.03;;;15.60;99.90;;;;;;4988163;28;20392;-83
2021/09/28 05:05:58;;;;;;;4.35;3.00;;;15.60;99.90;;;;;;4988930;28;20411;-82
2021/09/28 05:08:24;;;;;;;7.00;2.80;;;15.50;99.90;;;;;;4984418;28;20453;-84
2021/09/28 05:10:50;;;;;;;7.93;2.95;;;15.60;99.90;;;;;;4969337;28;20387;-80
2021/09/28 05:13:16;;;;;;;10.27;3.10;;;15.60;99.90;;;;;;4969536;28;20398;-82
2021/09/28 05:15:41;;;;;;;10.27;3.15;;;15.60;99.90;;;;;;4985890;28;20400;-85
2021/09/28 05:18:07;;;;;;;6.72;2.67;;;15.60;99.90;;;;;;4988480;28;20373;-79
2021/09/28 05:20:33;;;;;;;5.72;2.35;;;15.50;99.90;;;;;;4988758;28;20803;-80
2021/09/28 05:23:05;;;;;;;4.53;2.53;;;15.50;99.90;;;;;;4989477;28;20531;-82
2021/09/28 05:25:33;;;;;;;4.88;2.60;;;15.60;99.90;;;;;;4974472;28;20423;-82
2021/09/28 05:27:58;;;;;;;5.05;2.50;;;15.50;99.90;;;;;;4990516;28;20384;-81
2021/09/28 05:30:25;;;;;;;4.55;2.25;;;15.50;99.90;;;;;;4990764;28;20381;-80
2021/09/28 05:32:54;;;;;;;6.70;2.40;;;15.50;99.90;;;;;;4992086;28;20428;-84
2021/09/28 05:35:20;;;;;;;5.10;2.10;;;15.60;99.90;;;;;;4990676;28;20388;-86
2021/09/28 05:37:46;;;;;;;5.07;2.30;;;15.70;99.90;;;;;;4992133;28;20497;-82
2021/09/28 05:40:12;;;;;;;4.53;2.67;;;15.80;99.90;;;;;;4974218;28;20509;-83
2021/09/28 05:42:40;;;;;;;4.70;2.30;;;15.70;99.90;;;;;;4992450;28;20413;-85
2021/09/28 05:45:06;;;;;;;6.70;2.25;;;15.80;99.90;;;;;;4991871;28;20412;-81
2021/09/28 05:47:32;;;;;;;4.63;2.25;;;15.80;99.90;;;;;;4991938;28;20469;-81
2021/09/28 05:49:57;;;;;;;5.50;2.05;;;15.80;99.90;;;;;;4991966;28;20806;-82
2021/09/28 05:52:23;;;;;;;5.70;2.30;;;15.80;99.90;;;;;;4991791;28;20396;-85
2021/09/28 05:54:49;;;;;;;7.90;2.22;;;15.70;99.90;;;;;;4990668;28;20385;-82
2021/09/28 05:57:21;;;;;;;7.00;2.47;;;15.70;99.90;;;;;;4989614;28;20722;-82
2021/09/28 05:59:47;;;;;;;9.90;2.40;;;15.70;99.90;;;;;;4989622;28;20388;-79
2021/09/28 06:02:14;;;;;;;7.68;2.50;;;15.70;99.90;;;;;;4990340;28;20382;-83
2021/09/28 06:04:40;;;;;;;5.28;2.10;;;15.70;99.90;;;;;;4988840;28;20999;-82
2021/09/28 06:07:06;;;;;;;5.10;2.20;;;15.70;99.90;;;;;;4972704;28;20411;-79
2021/09/28 06:09:39;;;;;;;6.38;2.53;;;15.70;99.90;;;;;;4990588;28;20384;-82
2021/09/28 06:12:09;;;;;;;6.95;2.30;;;15.70;99.90;;;;;;4991738;28;20373;-83
2021/09/28 06:14:36;;;;;;;8.02;2.03;;;15.70;99.90;;;;;;4973940;28;20925;-81
2021/09/28 06:17:02;;;;;;;4.70;2.00;;;15.80;99.90;;;;;;4991945;28;20373;-82
2021/09/28 06:19:28;;;;;;;6.57;2.22;;;15.90;99.90;;;;;;4973165;28;20767;-81
2021/09/28 06:21:57;;;;;;;8.43;2.22;;;16.00;99.90;;;;;;4991287;28;20416;-81
2021/09/28 06:24:23;;;;;;;3.90;1.90;;;16.00;99.90;;;;;;4974602;28;20385;-86
2021/09/28 06:26:49;;;;;;;7.70;2.22;;;16.00;99.90;;;;;;4991340;28;20915;-83
2021/09/28 06:29:16;;;;;;;6.17;2.13;;;16.10;99.90;;;;;;4990844;28;20400;-84
2021/09/28 06:31:42;;;;;;;7.65;2.35;;;16.10;99.90;;;;;;4991235;28;20408;-80
2021/09/28 06:34:10;;;;;;;6.93;2.58;;;16.10;99.90;;;;;;4990636;28;20395;-83
2021/09/28 06:36:37;;;;;;;5.75;2.60;;;16.10;99.90;;;;;;4990751;28;20428;-82
2021/09/28 06:39:03;;;;;;;8.80;2.65;;;16.20;99.90;;;;;;4991335;28;20453;-86
2021/09/28 06:41:29;;;;;;;9.20;2.67;;;16.20;99.90;;;;;;4991301;28;20377;-81
2021/09/28 06:43:55;;;;;;;9.77;3.10;;;16.10;99.90;;;;;;4991132;28;20791;-85
2021/09/28 06:46:21;;;;;;;8.95;2.95;;;16.10;99.90;;;;;;4990882;28;20409;-85
2021/09/28 06:48:48;;;;;;;27.90;4.80;;;16.10;99.90;;;;;;4989691;28;20389;-83
2021/09/28 06:51:13;;;;;;;8.07;2.83;;;16.20;99.90;;;;;;4976468;28;21552;-81
2021/09/28 06:53:39;;;;;;;5.82;2.33;;;16.20;99.90;;;;;;5001649;28;20436;-85
2021/09/28 06:56:05;;;;;;;10.70;3.30;;;16.10;99.90;;;;;;4991360;28;20501;-85
2021/09/28 06:58:30;;;;;;;7.87;2.80;;;16.20;99.90;;;;;;4990436;28;20938;-83
2021/09/28 07:00:56;;;;;;;6.20;3.20;;;16.20;99.90;;;;;;4990083;28;20467;-82
2021/09/28 07:03:21;;;;;;;8.07;2.83;;;16.20;99.90;;;;;;4984659;28;20482;-81
2021/09/28 07:05:48;;;;;;;7.97;2.90;;;16.40;99.90;;;;;;4990656;28;20767;-81
2021/09/28 07:08:15;;;;;;;8.27;3.20;;;16.40;99.90;;;;;;4989431;28;20448;-83
2021/09/28 07:10:41;;;;;;;8.48;2.85;;;16.20;99.90;;;;;;4990015;28;20373;-80
2021/09/28 07:13:07;;;;;;;8.93;2.75;;;16.30;99.90;;;;;;4990158;28;20433;-82
2021/09/28 07:15:33;;;;;;;7.32;2.90;;;16.30;99.90;;;;;;4989005;28;20385;-80
2021/09/28 07:17:59;;;;;;;7.65;3.00;;;16.50;99.90;;;;;;4988060;28;20394;-81
2021/09/28 07:20:24;;;;;;;7.93;3.17;;;16.60;99.90;;;;;;4986603;28;20418;-88
2021/09/28 07:22:50;;;;;;;7.82;3.33;;;16.40;99.90;;;;;;4991521;28;20810;-84
2021/09/28 07:25:16;;;;;;;8.23;3.30;;;16.40;99.90;;;;;;4989165;28;20404;-81
2021/09/28 07:27:42;;;;;;;8.70;3.55;;;16.40;99.90;;;;;;4989035;28;20504;-84
2021/09/28 07:30:08;;;;;;;10.18;3.85;;;16.30;99.90;;;;;;4991458;28;20709;-78
2021/09/28 07:32:33;;;;;;;11.02;4.13;;;16.40;99.90;;;;;;4991139;28;20409;-85
2021/09/28 07:34:59;;;;;;;6.90;3.50;;;16.40;99.90;;;;;;4990004;28;20916;-81
2021/09/28 07:37:29;;;;;;;9.77;3.40;;;16.40;99.90;;;;;;4972323;28;20381;-81
2021/09/28 07:39:57;;;;;;;9.32;3.88;;;16.50;99.90;;;;;;4987426;28;20400;-80
2021/09/28 07:42:24;;;;;;;9.88;3.70;;;16.70;99.90;;;;;;4983385;28;20390;-84
2021/09/28 07:44:54;;;;;;;7.75;3.42;;;16.90;99.90;;;;;;4989188;28;20392;-84
2021/09/28 07:47:20;;;;;;;12.30;4.10;;;17.00;99.90;;;;;;4988088;28;20427;-86
2021/09/28 07:49:46;;;;;;;8.07;3.50;;;17.00;99.90;;;;;;4989707;28;20388;-80
2021/09/28 07:52:12;;;;;;;7.53;3.50;;;17.20;99.90;;;;;;4988666;28;20381;-86
2021/09/28 07:54:39;;;;;;;10.63;3.97;;;17.20;99.90;;;;;;4987185;28;20467;-83
2021/09/28 07:57:05;;;;;;;12.20;4.53;;;17.20;99.90;;;;;;5005628;28;20449;-79
2021/09/28 07:59:31;;;;;;;10.27;4.47;;;16.80;99.90;;;;;;5007764;28;20383;-80
2021/09/28 08:01:57;;;;;;;8.88;4.40;;;16.70;99.90;;;;;;5009062;28;20454;-78
2021/09/28 08:04:22;;;;;;;9.70;4.60;;;16.40;99.90;;;;;;5008970;28;20411;-83
2021/09/28 08:06:48;;;;;;;10.13;5.43;;;16.40;99.90;;;;;;5008513;28;20410;-80
2021/09/28 08:09:14;;;;;;;11.25;4.90;;;16.20;99.90;;;;;;5008728;28;20378;-84
2021/09/28 08:11:41;;;;;;;9.73;4.90;;;16.30;99.90;;;;;;5008681;28;20378;-81
2021/09/28 08:14:07;;;;;;;37.92;27.23;;;16.30;99.90;;;;;;5009207;28;20379;-82
2021/09/28 08:16:34;;;;;;;48.53;39.30;;;16.40;99.90;;;;;;5008800;28;20387;-79
2021/09/28 08:19:00;;;;;;;19.05;11.60;;;16.60;99.90;;;;;;4991064;28;20395;-82
2021/09/28 08:21:26;;;;;;;23.83;13.40;;;16.50;99.90;;;;;;5008959;28;20387;-84
2021/09/28 08:23:51;;;;;;;17.85;7.82;;;16.50;99.90;;;;;;5008747;28;20481;-83
2021/09/28 08:29:11;;;;;;;16.50;8.88;;;16.80;99.90;;;;;;5009015;28;20386;-79
2021/09/28 08:31:43;;;;;;;15.45;10.07;;;16.60;99.90;;;;;;5007028;28;20387;-81
2021/09/28 08:34:11;;;;;;;10.73;5.47;;;16.50;99.90;;;;;;4984394;28;20383;-79
2021/09/28 08:36:37;;;;;;;13.55;8.45;;;16.60;99.90;;;;;;5008695;28;20753;-81
2021/09/28 08:39:05;;;;;;;13.82;7.30;;;16.70;99.90;;;;;;5008710;28;20371;-81
2021/09/28 08:41:31;;;;;;;13.75;5.78;;;16.80;99.90;;;;;;5008461;28;20391;-83
2021/09/28 08:43:57;;;;;;;27.77;20.87;;;17.10;99.90;;;;;;5007648;28;20398;-85
2021/09/28 08:46:25;;;;;;;13.30;9.73;;;17.20;99.90;;;;;;5007641;28;20434;-82
2021/09/28 08:48:50;;;;;;;18.63;8.27;;;17.20;99.90;;;;;;5007287;28;20398;-86
2021/09/28 08:51:16;;;;;;;18.30;6.23;;;17.20;99.90;;;;;;5007828;28;20388;-84
2021/09/28 08:53:42;;;;;;;13.18;5.55;;;17.20;99.90;;;;;;5007393;28;20375;-80
2021/09/28 08:56:10;;;;;;;12.30;5.82;;;17.30;99.90;;;;;;5007253;28;20478;-82
2021/09/28 08:59:02;;;;;;;26.63;13.43;;;17.20;99.90;;;;;;5011559;28;20383;-80
2021/09/28 09:01:31;;;;;;;27.05;22.00;;;17.10;99.90;;;;;;4992054;28;20441;-83
2021/09/28 09:04:18;;;;;;;16.15;8.48;;;17.30;99.90;;;;;;4996166;28;20393;-86
2021/09/28 09:06:45;;;;;;;17.00;7.20;;;17.40;99.90;;;;;;4991309;28;20417;-84
2021/09/28 09:09:12;;;;;;;15.40;7.07;;;17.30;99.90;;;;;;4993223;28;20388;-87
2021/09/28 09:11:41;;;;;;;13.95;5.40;;;17.40;99.90;;;;;;4993451;28;20395;-85
2021/09/28 09:14:18;;;;;;;11.80;5.22;;;17.60;99.90;;;;;;4993764;28;20460;-84
2021/09/28 09:16:49;;;;;;;15.18;5.25;;;17.70;99.90;;;;;;4993547;28;20393;-83
2021/09/28 09:19:24;;;;;;;25.90;6.77;;;17.70;99.90;;;;;;4990479;28;20412;-86
2021/09/28 09:21:55;;;;;;;14.52;5.40;;;17.70;99.90;;;;;;4993464;28;20875;-79
2021/09/28 09:24:41;;;;;;;15.68;6.95;;;17.80;99.90;;;;;;4993490;28;20464;-85
2021/09/28 09:27:13;;;;;;;13.00;5.63;;;17.60;99.90;;;;;;4991603;28;20404;-79
2021/09/28 09:29:40;;;;;;;11.63;5.83;;;17.60;99.90;;;;;;4991495;28;20455;-80
2021/09/28 09:32:06;;;;;;;10.48;5.13;;;17.60;99.90;;;;;;4991710;28;20457;-81
2021/09/28 09:34:31;;;;;;;12.77;5.25;;;17.70;99.90;;;;;;4990982;28;20471;-83
2021/09/28 09:36:59;;;;;;;11.60;5.10;;;17.80;99.90;;;;;;4991027;28;20779;-83
2021/09/28 09:39:26;;;;;;;14.88;5.45;;;17.90;99.90;;;;;;4991607;28;20397;-83
2021/09/28 09:42:07;;;;;;;15.00;5.27;;;18.00;99.90;;;;;;4990948;28;20784;-83
2021/09/28 09:44:33;;;;;;;11.05;5.32;;;18.20;99.90;;;;;;4990462;28;20389;-82
2021/09/28 09:47:02;;;;;;;12.68;5.45;;;18.40;99.90;;;;;;4992435;28;20401;-80
2021/09/28 09:49:34;;;;;;;10.98;4.60;;;18.50;99.90;;;;;;4991726;28;20389;-80
2021/09/28 09:52:08;;;;;;;12.35;4.72;;;18.50;99.90;;;;;;4992426;28;20372;-80
2021/09/28 09:54:40;;;;;;;14.65;6.40;;;18.60;99.90;;;;;;4990404;28;20800;-84
2021/09/28 09:57:08;;;;;;;15.90;9.02;;;18.50;99.90;;;;;;4995061;28;20380;-77
2021/09/28 09:59:35;;;;;;;12.95;6.65;;;18.60;99.90;;;;;;4993064;28;20918;-81
2021/09/28 10:02:03;;;;;;;14.13;6.57;;;18.60;99.90;;;;;;4993067;28;20360;-78
2021/09/28 10:04:29;;;;;;;11.07;4.97;;;18.60;99.90;;;;;;4992231;28;20887;-79
2021/09/28 10:06:56;;;;;;;10.73;4.60;;;18.70;99.90;;;;;;4991127;28;20460;-83
2021/09/28 10:09:27;;;;;;;11.30;4.43;;;18.90;99.90;;;;;;4991274;28;20441;-81
2021/09/28 10:12:01;;;;;;;10.55;4.10;;;18.80;99.90;;;;;;4992377;28;20385;-80
2021/09/28 10:14:44;;;;;;;12.23;4.10;;;18.70;99.90;;;;;;4991459;28;20401;-82
2021/09/28 10:17:22;;;;;;;9.65;4.30;;;18.80;99.90;;;;;;4990758;28;20384;-79
2021/09/28 10:19:50;;;;;;;12.45;4.15;;;18.60;99.90;;;;;;4990572;28;20483;-85
2021/09/28 10:22:42;;;;;;;19.83;5.33;;;18.70;99.90;;;;;;4988401;28;20384;-81
2021/09/28 10:25:22;;;;;;;10.47;4.10;;;18.80;99.90;;;;;;5000869;28;20391;-84
2021/09/28 10:27:52;;;;;;;10.85;3.47;;;18.80;99.90;;;;;;5010950;28;20378;-84
2021/09/28 10:30:35;;;;;;;11.23;3.88;;;18.20;99.90;;;;;;5010512;28;20390;-85
2021/09/28 10:33:07;;;;;;;9.32;3.67;;;18.40;99.90;;;;;;5007501;28;20391;-83
2021/09/28 10:35:34;;;;;;;8.82;3.13;;;18.50;99.90;;;;;;5010712;28;20474;-81
2021/09/28 10:38:05;;;;;;;8.57;2.90;;;18.80;99.90;;;;;;5010633;28;20526;-81
2021/09/28 10:40:34;;;;;;;12.23;3.40;;;19.20;99.90;;;;;;5010096;28;20919;-83
2021/09/28 10:43:01;;;;;;;8.25;3.13;;;19.40;99.90;;;;;;5009317;28;20378;-82
2021/09/28 10:45:29;;;;;;;10.40;3.33;;;19.40;99.90;;;;;;5008692;28;20473;-80
2021/09/28 10:47:55;;;;;;;11.57;3.60;;;19.70;99.90;;;;;;4991059;28;20394;-84
2021/09/28 10:50:32;;;;;;;11.93;3.37;;;19.90;99.90;;;;;;5001801;28;20389;-82
2021/09/28 10:53:00;;;;;;;11.27;4.22;;;20.00;99.90;;;;;;4988788;28;20396;-79
2021/09/28 10:55:41;;;;;;;11.20;3.67;;;20.10;99.90;;;;;;4989891;28;20389;-83
2021/09/28 10:58:09;;;;;;;10.75;3.50;;;19.80;99.90;;;;;;4985986;28;20895;-82
2021/09/28 11:00:38;;;;;;;11.15;3.30;;;19.80;99.90;;;;;;4990192;28;20469;-83
2021/09/28 11:03:03;;;;;;;14.82;7.13;;;19.90;99.90;;;;;;4990483;28;20538;-81
2021/09/28 11:05:31;;;;;;;10.37;3.80;;;19.90;99.90;;;;;;4989872;28;20413;-82
2021/09/28 11:07:59;;;;;;;13.25;4.22;;;20.00;99.90;;;;;;4990655;28;20850;-82
2021/09/28 11:10:25;;;;;;;10.35;4.65;;;20.20;99.90;;;;;;4990116;28;20389;-81
2021/09/28 11:12:51;;;;;;;10.02;4.18;;;20.40;99.90;;;;;;4990447;28;20388;-82
2021/09/28 11:15:20;;;;;;;9.60;3.25;;;20.30;99.90;;;;;;4990006;28;20739;-83
2021/09/28 11:17:46;;;;;;;10.32;4.03;;;20.30;99.90;;;;;;4989904;28;20380;-82
2021/09/28 11:20:25;;;;;;;8.77;3.57;;;20.10;99.90;;;;;;4989883;28;20815;-82
2021/09/28 11:23:08;;;;;;;13.40;6.43;;;20.20;99.90;;;;;;4972742;28;20397;-87
2021/09/28 11:25:37;;;;;;;9.90;3.38;;;20.20;99.90;;;;;;4990178;28;20417;-81
2021/09/28 11:28:04;;;;;;;8.30;3.22;;;19.80;99.90;;;;;;4990113;28;20886;-83
2021/09/28 11:30:34;;;;;;;8.65;3.35;;;19.80;99.90;;;;;;4988908;28;20392;-83
2021/09/28 11:33:01;;;;;;;7.93;2.70;;;19.90;99.90;;;;;;4988258;28;20409;-82
2021/09/28 11:35:27;;;;;;;7.43;2.93;;;19.90;99.90;;;;;;4990467;28;20377;-83
2021/09/28 11:38:12;;;;;;;6.40;2.45;;;19.80;99.90;;;;;;4972360;28;20393;-80
2021/09/28 11:40:39;;;;;;;6.50;2.30;;;19.90;99.90;;;;;;4983775;28;20376;-85
2021/09/28 11:43:36;;;;;;;8.13;2.72;;;19.90;99.90;;;;;;4972976;28;20428;-81
2021/09/28 11:46:04;;;;;;;7.30;3.22;;;19.80;99.90;;;;;;4973422;28;20459;-86
2021/09/28 11:48:58;;;;;;;8.90;3.00;;;19.70;99.90;;;;;;4990142;28;20365;-82
2021/09/28 11:51:44;;;;;;;6.35;2.85;;;19.50;99.90;;;;;;4987422;28;20484;-85
2021/09/28 11:54:17;;;;;;;7.00;2.97;;;19.60;99.90;;;;;;4990043;28;20389;-80
2021/09/28 11:56:45;;;;;;;7.27;2.90;;;19.60;99.90;;;;;;4989502;28;20385;-81
2021/09/28 11:59:14;;;;;;;7.20;3.30;;;19.60;99.90;;;;;;4989775;28;20385;-83
2021/09/28 12:01:40;;;;;;;10.05;3.92;;;19.40;99.90;;;;;;4982493;28;20400;-81
2021/09/28 12:04:15;;;;;;;9.52;2.88;;;19.50;99.90;;;;;;4992043;28;20505;-82
2021/09/28 12:07:01;;;;;;;7.30;2.60;;;19.40;99.90;;;;;;4967770;28;20419;-79
2021/09/28 12:09:48;;;;;;;6.70;2.22;;;19.60;99.90;;;;;;4978499;28;20478;-83
2021/09/28 12:12:16;;;;;;;8.45;2.13;;;19.50;99.90;;;;;;4981088;28;20712;-79
2021/09/28 12:14:45;;;;;;;6.65;3.17;;;19.60;99.90;;;;;;4982528;28;20376;-81
2021/09/28 12:17:23;;;;;;;10.20;3.13;;;19.40;99.90;;;;;;4979101;28;20382;-81
2021/09/28 12:20:17;;;;;;;6.97;3.20;;;19.50;99.90;;;;;;4977864;28;20456;-82
2021/09/28 12:22:46;;;;;;;10.43;3.17;;;19.50;99.90;;;;;;4962191;28;20440;-85
2021/09/28 12:25:19;;;;;;;9.05;6.80;;;19.80;99.90;;;;;;4968351;28;20395;-81
2021/09/28 12:27:57;;;;;;;5.72;2.53;;;20.00;99.90;;;;;;4977472;28;20395;-82
2021/09/28 12:30:27;;;;;;;10.52;4.30;;;20.10;99.90;;;;;;4998551;28;20407;-80
2021/09/28 12:32:53;;;;;;;9.35;4.78;;;20.00;99.90;;;;;;4997161;28;20384;-80
2021/09/28 12:35:27;;;;;;;11.55;5.30;;;20.10;99.90;;;;;;4993345;28;20400;-80
2021/09/28 12:37:56;;;;;;;11.20;7.13;;;20.00;99.90;;;;;;4990876;28;20399;-85
2021/09/28 12:40:28;;;;;;;11.68;4.57;;;20.00;99.90;;;;;;4985531;28;20899;-80
2021/09/28 12:43:08;;;;;;;7.30;3.22;;;20.00;99.90;;;;;;4985486;28;20393;-83
2021/09/28 12:45:55;;;;;;;7.88;3.10;;;20.00;99.90;;;;;;4984724;28;20423;-81